createdAt,value
2017-05-15T00:00:20.104Z,14.11
2017-05-15T00:01:20.858Z,14.11
2017-05-15T00:02:21.837Z,14.08
2017-05-15T00:03:22.567Z,14.07
2017-05-15T00:04:23.320Z,14.15
2017-05-15T00:05:24.048Z,14.05
2017-05-15T00:06:24.777Z,14.05
2017-05-15T00:07:25.751Z,14.04
2017-05-15T00:08:26.481Z,14.04
2017-05-15T00:09:27.208Z,14.00
2017-05-15T00:10:27.940Z,14.11
2017-05-15T00:11:28.667Z,14.11
2017-05-15T00:12:29.670Z,14.07
2017-05-15T00:13:30.396Z,14.12
2017-05-15T00:14:31.126Z,14.11
2017-05-15T00:15:31.856Z,14.04
2017-05-15T00:16:32.586Z,13.96
2017-05-15T00:17:33.563Z,14.03
2017-05-15T00:18:34.623Z,13.95
2017-05-15T00:19:35.279Z,13.86
2017-05-15T00:20:36.009Z,13.86
2017-05-15T00:21:36.739Z,13.78
2017-05-15T00:22:37.717Z,13.79
2017-05-15T00:23:38.445Z,13.79
2017-05-15T00:24:39.173Z,13.74
2017-05-15T00:25:39.899Z,13.74
2017-05-15T00:26:40.627Z,13.63
2017-05-15T00:27:41.604Z,13.62
2017-05-15T00:28:42.330Z,13.62
2017-05-15T00:29:43.068Z,13.57
2017-05-15T00:30:43.816Z,13.47
2017-05-15T00:31:44.542Z,13.49
2017-05-15T00:32:45.516Z,13.50
2017-05-15T00:33:46.241Z,13.50
2017-05-15T00:34:46.971Z,13.49
2017-05-15T00:35:47.697Z,13.46
2017-05-15T00:36:48.428Z,13.47
2017-05-15T00:37:49.482Z,13.47
2017-05-15T00:38:50.211Z,13.47
2017-05-15T00:39:50.941Z,13.47
2017-05-15T00:40:51.666Z,13.42
2017-05-15T00:41:52.396Z,13.49
2017-05-15T00:42:53.373Z,13.31
2017-05-15T00:43:54.102Z,13.38
2017-05-15T00:44:54.830Z,13.37
2017-05-15T00:45:55.559Z,13.42
2017-05-15T00:46:56.284Z,13.31
2017-05-15T00:47:57.260Z,13.30
2017-05-15T00:48:57.987Z,13.28
2017-05-15T00:49:58.716Z,13.30
2017-05-15T00:50:59.441Z,13.30
2017-05-15T00:58:18.342Z,13.03
2017-05-15T00:59:19.071Z,13.03
2017-05-15T01:00:19.794Z,13.05
2017-05-15T01:01:20.520Z,13.08
2017-05-15T01:02:21.249Z,13.03
2017-05-15T01:03:22.224Z,12.94
2017-05-15T01:04:22.950Z,13.05
2017-05-15T01:05:23.675Z,12.95
2017-05-15T01:06:24.403Z,13.05
2017-05-15T01:07:25.129Z,12.94
2017-05-15T01:08:26.104Z,12.90
2017-05-15T01:09:26.829Z,13.00
2017-05-15T01:10:27.558Z,12.98
2017-05-15T01:11:28.283Z,12.95
2017-05-15T01:12:29.012Z,12.82
2017-05-15T01:13:29.986Z,12.86
2017-05-15T01:14:30.715Z,12.83
2017-05-15T01:15:31.439Z,12.86
2017-05-15T01:16:32.165Z,12.82
2017-05-15T01:17:32.892Z,12.90
2017-05-15T01:18:33.869Z,12.76
2017-05-15T01:31:59.702Z,12.54
2017-05-15T01:33:00.454Z,12.50
2017-05-15T01:34:01.186Z,12.47
2017-05-15T01:38:37.996Z,12.47
2017-05-15T01:39:38.723Z,12.46
2017-05-15T01:40:39.473Z,12.46
2017-05-15T01:41:40.201Z,12.43
2017-05-15T01:46:27.936Z,12.24
2017-05-15T01:47:28.660Z,12.20
2017-05-15T01:48:29.389Z,12.24
2017-05-15T01:49:30.112Z,12.22
2017-05-15T01:50:30.837Z,12.18
2017-05-15T01:51:31.815Z,12.25
2017-05-15T01:52:32.542Z,12.15
2017-05-15T01:53:33.269Z,12.17
2017-05-15T01:54:34.247Z,12.17
2017-05-15T01:55:34.973Z,12.25
2017-05-15T01:56:35.701Z,12.13
2017-05-15T01:57:36.453Z,12.13
2017-05-15T01:58:37.177Z,12.12
2017-05-15T01:59:38.154Z,12.15
2017-05-15T02:00:38.878Z,12.18
2017-05-15T02:01:39.605Z,12.07
2017-05-15T02:02:40.331Z,12.10
2017-05-15T02:03:41.059Z,12.10
2017-05-15T02:04:42.032Z,12.09
2017-05-15T02:05:42.760Z,12.02
2017-05-15T02:06:43.486Z,12.10
2017-05-15T02:07:44.211Z,12.00
2017-05-15T02:08:44.938Z,12.03
2017-05-15T02:09:45.937Z,12.03
2017-05-15T02:10:46.663Z,12.04
2017-05-15T02:11:47.391Z,11.90
2017-05-15T02:12:48.115Z,11.97
2017-05-15T02:13:48.843Z,11.91
2017-05-15T02:14:49.821Z,11.90
2017-05-15T02:15:50.593Z,11.83
2017-05-15T02:16:51.274Z,11.87
2017-05-15T02:17:52.001Z,11.78
2017-05-15T02:18:52.749Z,11.77
2017-05-15T02:19:53.727Z,11.75
2017-05-15T02:20:54.453Z,11.73
2017-05-15T02:21:55.181Z,11.75
2017-05-15T02:22:55.900Z,11.72
2017-05-15T02:23:56.653Z,11.68
2017-05-15T02:24:57.629Z,11.57
2017-05-15T02:25:58.355Z,11.70
2017-05-15T02:26:59.079Z,11.55
2017-05-15T02:27:59.804Z,11.51
2017-05-15T02:29:00.538Z,11.60
2017-05-15T02:30:01.515Z,11.62
2017-05-15T02:31:02.239Z,11.59
2017-05-15T02:32:02.966Z,11.55
2017-05-15T02:33:03.692Z,11.55
2017-05-15T02:34:04.429Z,11.57
2017-05-15T02:35:05.395Z,11.52
2017-05-15T02:36:06.120Z,11.57
2017-05-15T02:37:06.847Z,11.62
2017-05-15T02:38:07.573Z,11.57
2017-05-15T02:39:08.301Z,11.63
2017-05-15T02:40:09.279Z,11.52
2017-05-15T02:41:10.027Z,11.54
2017-05-15T02:42:10.754Z,11.59
2017-05-15T02:43:11.482Z,11.62
2017-05-15T02:44:12.208Z,11.57
2017-05-15T02:45:13.188Z,11.54
2017-05-15T02:46:13.915Z,11.48
2017-05-15T02:47:14.641Z,11.52
2017-05-15T02:48:15.373Z,11.51
2017-05-15T02:49:16.097Z,11.51
2017-05-15T02:50:17.074Z,11.50
2017-05-15T02:51:17.800Z,11.52
2017-05-15T02:52:18.529Z,11.41
2017-05-15T02:53:19.254Z,11.40
2017-05-15T02:54:19.979Z,11.33
2017-05-15T02:55:20.959Z,11.43
2017-05-15T02:56:21.676Z,11.41
2017-05-15T02:57:22.402Z,11.40
2017-05-15T02:58:23.127Z,11.41
2017-05-15T02:59:23.855Z,11.36
2017-05-15T03:00:24.827Z,11.30
2017-05-15T03:01:25.550Z,11.41
2017-05-15T03:02:26.276Z,11.29
2017-05-15T03:03:27.028Z,11.32
2017-05-15T03:04:27.755Z,11.37
2017-05-15T03:05:28.732Z,11.35
2017-05-15T03:06:29.457Z,11.30
2017-05-15T03:07:30.187Z,11.36
2017-05-15T03:08:30.911Z,11.29
2017-05-15T03:09:31.637Z,11.27
2017-05-15T03:10:32.615Z,11.23
2017-05-15T03:11:33.341Z,11.27
2017-05-15T03:12:34.067Z,11.26
2017-05-15T03:13:34.796Z,11.18
2017-05-15T03:14:35.523Z,11.19
2017-05-15T03:15:36.501Z,11.15
2017-05-15T03:16:37.230Z,11.19
2017-05-15T03:17:37.958Z,11.14
2017-05-15T03:18:38.680Z,11.14
2017-05-15T03:19:39.405Z,11.17
2017-05-15T03:20:40.385Z,11.17
2017-05-15T03:21:41.114Z,11.22
2017-05-15T03:22:41.840Z,11.17
2017-05-15T03:23:42.572Z,11.17
2017-05-15T03:24:43.321Z,11.15
2017-05-15T03:25:44.297Z,11.17
2017-05-15T03:26:45.025Z,11.17
2017-05-15T03:27:45.753Z,11.22
2017-05-15T03:28:46.479Z,11.22
2017-05-15T03:29:47.208Z,11.14
2017-05-15T03:30:48.209Z,11.14
2017-05-15T03:31:48.939Z,11.17
2017-05-15T03:32:49.665Z,11.25
2017-05-15T03:33:50.396Z,11.18
2017-05-15T03:34:51.126Z,11.25
2017-05-15T03:35:52.105Z,11.18
2017-05-15T03:36:52.834Z,11.19
2017-05-15T03:37:53.564Z,11.15
2017-05-15T03:38:54.294Z,11.17
2017-05-15T03:39:55.022Z,11.10
2017-05-15T03:40:56.003Z,11.17
2017-05-15T03:41:56.731Z,11.07
2017-05-15T03:42:57.463Z,11.12
2017-05-15T03:43:58.190Z,11.17
2017-05-15T03:44:58.923Z,11.19
2017-05-15T03:45:59.902Z,11.15
2017-05-15T03:47:00.630Z,11.07
2017-05-15T03:48:01.365Z,11.10
2017-05-15T03:49:02.094Z,11.15
2017-05-15T03:50:02.825Z,11.12
2017-05-15T03:51:03.803Z,11.12
2017-05-15T03:52:04.532Z,11.17
2017-05-15T03:53:05.262Z,11.10
2017-05-15T03:54:05.994Z,11.10
2017-05-15T03:55:06.748Z,11.10
2017-05-15T03:56:07.729Z,11.15
2017-05-15T03:57:08.457Z,11.14
2017-05-15T03:58:09.191Z,11.12
2017-05-15T03:59:09.919Z,11.07
2017-05-15T04:00:10.647Z,11.07
2017-05-15T04:01:11.627Z,11.14
2017-05-15T04:02:12.354Z,11.18
2017-05-15T04:03:13.083Z,11.18
2017-05-15T04:04:13.816Z,11.14
2017-05-15T04:05:14.546Z,11.18
2017-05-15T04:06:15.524Z,11.11
2017-05-15T04:07:16.257Z,11.11
2017-05-15T04:08:16.987Z,11.17
2017-05-15T04:09:17.718Z,11.14
2017-05-15T04:10:18.446Z,11.19
2017-05-15T04:11:19.429Z,11.17
2017-05-15T04:12:20.158Z,11.18
2017-05-15T04:13:20.916Z,11.26
2017-05-15T04:14:21.643Z,11.26
2017-05-15T04:15:22.373Z,11.29
2017-05-15T04:16:23.355Z,11.29
2017-05-15T04:17:24.085Z,11.25
2017-05-15T04:18:24.818Z,11.32
2017-05-15T04:19:25.545Z,11.35
2017-05-15T04:20:26.278Z,11.26
2017-05-15T04:21:27.258Z,11.41
2017-05-15T04:22:27.987Z,11.41
2017-05-15T04:23:28.721Z,11.48
2017-05-15T04:24:29.447Z,11.45
2017-05-15T04:25:30.180Z,11.55
2017-05-15T04:26:31.163Z,11.54
2017-05-15T04:27:31.891Z,11.55
2017-05-15T04:28:32.624Z,11.54
2017-05-15T04:29:33.352Z,11.68
2017-05-15T04:30:34.078Z,11.72
2017-05-15T04:31:35.059Z,11.68
2017-05-15T04:32:35.789Z,11.66
2017-05-15T04:33:36.519Z,11.77
2017-05-15T04:34:37.247Z,11.81
2017-05-15T04:35:37.980Z,11.83
2017-05-15T04:36:38.972Z,11.84
2017-05-15T04:37:39.693Z,11.94
2017-05-15T04:38:40.423Z,11.95
2017-05-15T04:39:41.155Z,11.95
2017-05-15T04:40:41.878Z,12.02
2017-05-15T04:41:42.861Z,11.99
2017-05-15T04:42:43.590Z,11.97
2017-05-15T04:43:44.321Z,12.04
2017-05-15T04:44:45.053Z,12.06
2017-05-15T04:45:45.786Z,12.13
2017-05-15T04:46:46.768Z,12.13
2017-05-15T04:47:47.524Z,12.21
2017-05-15T04:48:48.286Z,12.15
2017-05-15T04:49:49.015Z,12.22
2017-05-15T04:50:49.744Z,12.20
2017-05-15T04:51:50.726Z,12.18
2017-05-15T04:52:51.481Z,12.25
2017-05-15T04:53:52.215Z,12.21
2017-05-15T04:54:52.947Z,12.28
2017-05-15T04:55:53.704Z,12.25
2017-05-15T04:56:54.943Z,12.25
2017-05-15T04:57:55.701Z,12.37
2017-05-15T04:58:56.435Z,12.36
2017-05-15T04:59:57.165Z,12.50
2017-05-15T05:00:57.896Z,12.55
2017-05-15T05:01:58.877Z,12.46
2017-05-15T05:02:59.609Z,12.50
2017-05-15T05:04:00.345Z,12.61
2017-05-15T05:05:01.073Z,12.57
2017-05-15T05:06:01.830Z,12.67
2017-05-15T05:07:02.810Z,12.73
2017-05-15T05:08:03.543Z,12.70
2017-05-15T05:09:04.275Z,12.72
2017-05-15T05:10:05.007Z,12.75
2017-05-15T05:11:05.734Z,12.78
2017-05-15T05:12:06.741Z,12.75
2017-05-15T05:13:07.473Z,12.85
2017-05-15T05:14:08.208Z,12.83
2017-05-15T05:15:08.942Z,12.95
2017-05-15T05:16:09.675Z,13.00
2017-05-15T05:17:10.656Z,12.98
2017-05-15T05:18:11.391Z,13.05
2017-05-15T05:19:12.123Z,13.15
2017-05-15T05:20:12.884Z,13.13
2017-05-15T05:21:13.616Z,13.13
2017-05-15T05:22:14.603Z,13.23
2017-05-15T05:23:15.334Z,13.31
2017-05-15T05:24:16.066Z,13.37
2017-05-15T05:25:16.801Z,13.30
2017-05-15T05:26:17.533Z,13.33
2017-05-15T05:27:18.540Z,13.39
2017-05-15T05:28:19.273Z,13.46
2017-05-15T05:29:20.005Z,13.50
2017-05-15T05:30:20.739Z,13.54
2017-05-15T05:31:21.472Z,13.60
2017-05-15T05:32:22.452Z,13.65
2017-05-15T05:33:23.187Z,13.67
2017-05-15T05:34:23.941Z,13.72
2017-05-15T05:35:24.673Z,13.78
2017-05-15T05:36:25.405Z,13.78
2017-05-15T05:37:26.388Z,13.79
2017-05-15T05:38:27.121Z,13.86
2017-05-15T05:39:27.878Z,13.85
2017-05-15T05:40:28.612Z,13.87
2017-05-15T05:41:29.343Z,13.90
2017-05-15T05:42:30.325Z,13.92
2017-05-15T05:43:31.068Z,13.96
2017-05-15T05:44:31.789Z,14.03
2017-05-15T05:45:32.546Z,13.92
2017-05-15T05:46:33.279Z,13.87
2017-05-15T05:47:34.263Z,13.95
2017-05-15T05:48:34.998Z,13.97
2017-05-15T05:49:35.729Z,13.93
2017-05-15T05:50:36.463Z,13.99
2017-05-15T05:51:37.197Z,14.10
2017-05-15T05:52:38.182Z,14.08
2017-05-15T05:53:38.913Z,14.17
2017-05-15T05:54:39.649Z,14.20
2017-05-15T05:55:40.382Z,14.25
2017-05-15T05:56:41.116Z,14.30
2017-05-15T05:57:42.098Z,14.32
2017-05-15T05:58:42.828Z,14.25
2017-05-15T05:59:43.563Z,14.33
2017-05-15T06:00:44.296Z,14.35
2017-05-15T06:01:45.028Z,14.28
2017-05-15T06:02:46.011Z,14.26
2017-05-15T06:03:46.744Z,14.33
2017-05-15T06:04:47.503Z,14.30
2017-05-15T06:05:48.237Z,14.29
2017-05-15T06:06:48.966Z,14.33
2017-05-15T06:07:49.948Z,14.26
2017-05-15T06:08:50.675Z,14.43
2017-05-15T06:09:51.408Z,14.32
2017-05-15T06:10:52.139Z,14.33
2017-05-15T06:11:52.874Z,14.43
2017-05-15T06:12:53.857Z,14.48
2017-05-15T06:13:54.588Z,14.51
2017-05-15T06:14:55.397Z,14.51
2017-05-15T06:15:56.077Z,14.73
2017-05-15T06:16:56.812Z,14.68
2017-05-15T06:17:57.793Z,14.63
2017-05-15T06:18:58.527Z,14.77
2017-05-15T06:19:59.261Z,14.85
2017-05-15T06:20:59.993Z,14.79
2017-05-15T06:22:00.725Z,14.86
2017-05-15T06:23:01.710Z,14.99
2017-05-15T06:24:02.469Z,14.94
2017-05-15T06:25:03.199Z,15.06
2017-05-15T06:26:03.931Z,15.07
2017-05-15T06:27:04.663Z,15.10
2017-05-15T06:28:05.646Z,15.21
2017-05-15T06:29:06.379Z,15.31
2017-05-15T06:30:07.113Z,15.31
2017-05-15T06:31:07.846Z,15.28
2017-05-15T06:32:08.578Z,15.33
2017-05-15T06:33:09.563Z,15.29
2017-05-15T06:34:10.297Z,15.43
2017-05-15T06:35:11.034Z,15.39
2017-05-15T06:36:11.764Z,15.51
2017-05-15T06:37:12.498Z,15.57
2017-05-15T06:38:13.482Z,15.57
2017-05-15T06:39:14.213Z,15.70
2017-05-15T06:40:14.948Z,15.59
2017-05-15T06:41:15.680Z,15.75
2017-05-15T06:42:16.417Z,15.73
2017-05-15T06:43:17.399Z,15.77
2017-05-15T06:44:18.131Z,15.54
2017-05-15T06:45:18.866Z,15.64
2017-05-15T06:46:19.603Z,15.65
2017-05-15T06:47:20.337Z,15.62
2017-05-15T06:48:21.321Z,15.61
2017-05-15T06:49:22.052Z,15.62
2017-05-15T06:50:22.810Z,15.73
2017-05-15T06:51:23.541Z,15.67
2017-05-15T06:52:24.300Z,15.65
2017-05-15T06:53:25.309Z,15.76
2017-05-15T06:54:26.040Z,15.80
2017-05-15T06:55:27.037Z,15.82
2017-05-15T06:56:27.770Z,15.82
2017-05-15T06:57:28.505Z,15.94
2017-05-15T06:58:29.487Z,15.97
2017-05-15T06:59:30.219Z,15.83
2017-05-15T07:00:30.982Z,15.76
2017-05-15T07:01:31.712Z,15.86
2017-05-15T07:02:32.470Z,16.00
2017-05-15T07:03:33.456Z,15.98
2017-05-15T07:04:34.215Z,16.01
2017-05-15T07:05:34.950Z,15.92
2017-05-15T07:06:35.684Z,15.95
2017-05-15T07:07:36.419Z,15.95
2017-05-15T07:08:37.402Z,15.97
2017-05-15T07:09:38.135Z,15.92
2017-05-15T07:10:38.864Z,15.95
2017-05-15T07:11:39.598Z,15.95
2017-05-15T07:12:40.332Z,16.01
2017-05-15T07:13:41.316Z,16.01
2017-05-15T07:14:42.050Z,16.00
2017-05-15T07:15:42.785Z,16.10
2017-05-15T07:16:43.520Z,16.21
2017-05-15T07:17:44.258Z,16.24
2017-05-15T07:18:45.246Z,16.47
2017-05-15T07:19:45.980Z,16.54
2017-05-15T07:20:46.715Z,16.66
2017-05-15T07:21:47.455Z,16.81
2017-05-15T07:22:48.197Z,16.89
2017-05-15T07:23:49.189Z,16.89
2017-05-15T07:24:49.933Z,16.93
2017-05-15T07:25:50.678Z,17.04
2017-05-15T07:26:51.447Z,17.05
2017-05-15T07:27:52.189Z,16.84
2017-05-15T07:28:53.183Z,16.91
2017-05-15T07:29:53.930Z,16.90
2017-05-15T07:30:54.666Z,16.90
2017-05-15T07:31:55.416Z,16.89
2017-05-15T07:32:56.159Z,17.15
2017-05-15T07:33:57.156Z,17.44
2017-05-15T07:34:57.900Z,17.68
2017-05-15T07:35:58.651Z,17.51
2017-05-15T07:36:59.419Z,17.45
2017-05-15T07:38:00.164Z,17.68
2017-05-15T07:39:01.154Z,17.85
2017-05-15T07:40:01.901Z,18.04
2017-05-15T07:41:02.652Z,18.28
2017-05-15T07:42:03.393Z,18.18
2017-05-15T07:43:04.137Z,17.79
2017-05-15T07:44:05.135Z,17.34
2017-05-15T07:45:05.879Z,17.46
2017-05-15T07:46:06.621Z,17.51
2017-05-15T07:47:07.365Z,17.48
2017-05-15T07:48:08.109Z,17.51
2017-05-15T07:49:09.101Z,17.82
2017-05-15T07:50:09.847Z,17.85
2017-05-15T07:51:10.590Z,18.25
2017-05-15T07:52:11.334Z,18.28
2017-05-15T07:53:12.077Z,18.37
2017-05-15T07:54:13.072Z,18.71
2017-05-15T07:55:13.818Z,18.84
2017-05-15T07:56:14.590Z,18.77
2017-05-15T07:57:15.334Z,19.12
2017-05-15T07:58:16.079Z,19.09
2017-05-15T07:59:17.077Z,19.21
2017-05-15T08:00:17.818Z,19.31
2017-05-15T08:01:18.564Z,19.24
2017-05-15T08:02:19.315Z,19.14
2017-05-15T08:03:20.061Z,18.92
2017-05-15T08:04:21.079Z,19.00
2017-05-15T08:05:21.823Z,18.93
2017-05-15T08:06:22.571Z,19.02
2017-05-15T08:07:23.317Z,19.18
2017-05-15T08:08:24.064Z,19.09
2017-05-15T08:09:25.058Z,19.12
2017-05-15T08:10:25.803Z,18.95
2017-05-15T08:11:26.549Z,19.16
2017-05-15T08:12:27.298Z,19.45
2017-05-15T08:13:28.043Z,19.59
2017-05-15T08:14:29.042Z,19.54
2017-05-15T08:15:29.787Z,18.88
2017-05-15T08:16:30.535Z,19.16
2017-05-15T08:17:31.282Z,19.08
2017-05-15T08:18:32.025Z,19.12
2017-05-15T08:19:33.015Z,19.41
2017-05-15T08:20:33.760Z,19.67
2017-05-15T08:22:47.742Z,19.26
2017-05-15T08:23:48.487Z,19.21
2017-05-15T08:24:49.487Z,19.29
2017-05-15T08:25:50.232Z,19.44
2017-05-15T08:26:50.979Z,19.37
2017-05-15T08:27:51.724Z,19.49
2017-05-15T08:28:52.471Z,19.55
2017-05-15T08:29:53.461Z,19.27
2017-05-15T08:30:54.208Z,19.26
2017-05-15T08:31:54.955Z,19.49
2017-05-15T08:32:55.729Z,19.48
2017-05-15T08:33:56.475Z,19.36
2017-05-15T08:34:57.473Z,19.56
2017-05-15T08:35:58.219Z,19.84
2017-05-15T08:36:58.965Z,20.00
2017-05-15T08:37:59.717Z,20.41
2017-05-15T08:39:00.464Z,20.36
2017-05-15T08:40:01.487Z,20.74
2017-05-15T08:41:02.235Z,21.24
2017-05-15T08:42:02.984Z,21.12
2017-05-15T08:43:03.731Z,21.42
2017-05-15T08:44:04.480Z,21.11
2017-05-15T08:45:05.479Z,20.65
2017-05-15T08:46:06.227Z,20.16
2017-05-15T08:47:06.974Z,20.44
2017-05-15T08:48:07.722Z,20.11
2017-05-15T08:49:08.471Z,20.75
2017-05-15T08:50:09.475Z,21.09
2017-05-15T08:51:10.217Z,21.12
2017-05-15T08:52:10.961Z,21.07
2017-05-15T08:53:11.712Z,21.11
2017-05-15T08:54:12.460Z,21.18
2017-05-15T08:55:13.465Z,21.05
2017-05-15T08:56:14.214Z,21.27
2017-05-15T08:57:14.962Z,21.64
2017-05-15T08:58:15.715Z,21.62
2017-05-15T08:59:16.467Z,21.11
2017-05-15T09:00:17.475Z,20.70
2017-05-15T09:01:18.227Z,20.78
2017-05-15T09:02:18.985Z,20.95
2017-05-15T09:03:19.740Z,21.02
2017-05-15T09:04:20.491Z,21.12
2017-05-15T09:05:21.497Z,21.42
2017-05-15T09:06:22.245Z,21.43
2017-05-15T09:07:23.006Z,21.55
2017-05-15T09:08:23.762Z,22.04
2017-05-15T09:09:24.517Z,22.10
2017-05-15T09:10:25.526Z,22.36
2017-05-15T09:11:26.284Z,22.30
2017-05-15T09:12:27.040Z,22.08
2017-05-15T09:13:27.798Z,21.80
2017-05-15T09:14:28.559Z,21.92
2017-05-15T09:15:29.567Z,22.48
2017-05-15T09:16:30.323Z,22.36
2017-05-15T09:17:31.082Z,22.32
2017-05-15T09:18:31.837Z,21.93
2017-05-15T09:19:32.591Z,21.91
2017-05-15T09:20:33.594Z,21.77
2017-05-15T09:21:34.349Z,22.11
2017-05-15T09:22:35.107Z,22.43
2017-05-15T09:23:35.863Z,21.73
2017-05-15T09:24:36.631Z,21.55
2017-05-15T09:25:37.682Z,21.95
2017-05-15T09:26:38.438Z,22.81
2017-05-15T09:27:39.191Z,22.50
2017-05-15T09:28:39.946Z,22.32
2017-05-15T09:29:40.710Z,22.20
2017-05-15T09:30:41.721Z,22.47
2017-05-15T09:31:42.474Z,22.68
2017-05-15T09:32:43.231Z,22.53
2017-05-15T09:33:43.989Z,22.84
2017-05-15T09:34:44.745Z,23.48
2017-05-15T09:35:45.750Z,23.99
2017-05-15T09:36:46.505Z,24.02
2017-05-15T09:37:47.264Z,23.91
2017-05-15T09:38:48.046Z,24.42
2017-05-15T09:39:48.802Z,24.35
2017-05-15T09:40:49.808Z,24.43
2017-05-15T09:41:50.563Z,24.10
2017-05-15T09:42:51.322Z,24.20
2017-05-15T09:43:52.077Z,23.99
2017-05-15T09:44:52.857Z,24.77
2017-05-15T09:45:53.867Z,24.86
2017-05-15T09:46:54.621Z,25.22
2017-05-15T09:47:55.377Z,25.80
2017-05-15T09:48:56.142Z,25.40
2017-05-15T09:49:56.915Z,25.43
2017-05-15T09:50:57.924Z,25.04
2017-05-15T09:51:58.684Z,24.74
2017-05-15T09:52:59.442Z,24.78
2017-05-15T09:54:00.202Z,24.40
2017-05-15T09:55:00.960Z,23.96
2017-05-15T09:56:01.968Z,24.51
2017-05-15T09:57:02.724Z,24.63
2017-05-15T09:58:03.484Z,24.17
2017-05-15T09:59:04.245Z,23.65
2017-05-15T10:00:05.003Z,23.65
2017-05-15T10:01:06.038Z,22.90
2017-05-15T10:02:06.794Z,23.09
2017-05-15T10:03:07.554Z,22.78
2017-05-15T10:04:08.312Z,22.62
2017-05-15T10:05:09.071Z,23.17
2017-05-15T10:06:10.080Z,23.68
2017-05-15T10:07:10.838Z,24.20
2017-05-15T10:08:11.600Z,24.74
2017-05-15T10:09:12.358Z,24.99
2017-05-15T10:10:13.121Z,25.25
2017-05-15T10:11:14.126Z,25.44
2017-05-15T10:12:14.885Z,25.54
2017-05-15T10:13:15.644Z,25.01
2017-05-15T10:14:16.402Z,25.18
2017-05-15T10:15:17.152Z,24.76
2017-05-15T10:16:18.156Z,24.23
2017-05-15T10:17:18.909Z,24.23
2017-05-15T10:18:19.665Z,23.83
2017-05-15T10:19:20.419Z,23.05
2017-05-15T10:20:21.503Z,22.93
2017-05-15T10:21:22.439Z,22.84
2017-05-15T10:22:23.197Z,22.62
2017-05-15T10:23:23.948Z,22.84
2017-05-15T10:24:24.706Z,22.45
2017-05-15T10:25:25.459Z,22.65
2017-05-15T10:26:26.472Z,23.12
2017-05-15T10:27:27.231Z,23.80
2017-05-15T10:28:27.988Z,24.38
2017-05-15T10:29:28.744Z,24.36
2017-05-15T10:30:29.502Z,25.10
2017-05-15T10:31:30.510Z,25.99
2017-05-15T10:32:31.264Z,26.56
2017-05-15T10:33:32.022Z,26.75
2017-05-15T10:34:32.778Z,27.05
2017-05-15T10:35:33.536Z,27.15
2017-05-15T10:36:34.543Z,27.64
2017-05-15T10:37:35.301Z,27.83
2017-05-15T10:38:36.055Z,27.30
2017-05-15T10:39:36.811Z,26.52
2017-05-15T10:40:37.564Z,26.18
2017-05-15T10:41:38.568Z,25.54
2017-05-15T10:42:39.321Z,25.69
2017-05-15T10:43:40.075Z,26.18
2017-05-15T10:44:40.829Z,26.70
2017-05-15T10:45:41.586Z,25.96
2017-05-15T10:46:42.592Z,26.09
2017-05-15T10:47:43.352Z,25.50
2017-05-15T10:48:44.107Z,24.80
2017-05-15T10:49:44.865Z,24.77
2017-05-15T10:50:45.624Z,24.81
2017-05-15T10:51:46.680Z,24.18
2017-05-15T10:52:47.383Z,24.26
2017-05-15T10:53:48.137Z,24.03
2017-05-15T10:54:48.891Z,23.62
2017-05-15T10:55:49.651Z,24.06
2017-05-15T10:56:50.656Z,24.35
2017-05-15T10:57:51.432Z,24.86
2017-05-15T10:58:52.190Z,25.62
2017-05-15T10:59:52.947Z,25.99
2017-05-15T11:00:53.705Z,26.16
2017-05-15T11:01:54.710Z,25.36
2017-05-15T11:02:55.464Z,25.55
2017-05-15T11:03:56.217Z,25.69
2017-05-15T11:04:56.978Z,25.96
2017-05-15T11:05:57.765Z,25.73
2017-05-15T11:06:58.768Z,25.69
2017-05-15T11:07:59.524Z,26.00
2017-05-15T11:09:00.281Z,24.95
2017-05-15T11:10:01.064Z,24.35
2017-05-15T11:11:01.821Z,24.23
2017-05-15T11:12:02.829Z,24.11
2017-05-15T11:13:03.584Z,24.86
2017-05-15T11:14:04.340Z,25.22
2017-05-15T11:15:05.095Z,25.72
2017-05-15T11:16:05.855Z,25.70
2017-05-15T11:17:06.882Z,25.96
2017-05-15T11:18:07.662Z,26.25
2017-05-15T11:19:08.419Z,25.77
2017-05-15T11:20:09.177Z,25.63
2017-05-15T11:21:09.935Z,25.41
2017-05-15T11:22:10.937Z,25.78
2017-05-15T11:23:11.694Z,25.99
2017-05-15T11:24:12.475Z,26.55
2017-05-15T11:25:13.235Z,26.92
2017-05-15T11:26:13.993Z,26.28
2017-05-15T11:39:51.201Z,27.25
2017-05-15T11:40:51.959Z,27.75
2017-05-15T11:41:52.740Z,27.44
2017-05-15T11:42:53.497Z,27.14
2017-05-15T11:43:54.252Z,27.64
2017-05-15T11:48:31.166Z,27.63
2017-05-15T11:49:32.121Z,26.36
2017-05-15T11:50:32.878Z,26.05
2017-05-15T11:51:33.640Z,25.69
2017-05-15T11:52:34.393Z,25.91
2017-05-15T11:53:35.424Z,26.40
2017-05-15T11:54:36.181Z,26.66
2017-05-15T11:55:36.936Z,26.33
2017-05-15T11:56:37.692Z,26.13
2017-05-15T12:00:09.941Z,25.84
2017-05-15T12:01:10.700Z,25.22
2017-05-15T12:07:14.193Z,26.80
2017-05-15T12:08:14.975Z,25.98
2017-05-15T12:09:15.732Z,25.91
2017-05-15T12:10:16.487Z,26.26
2017-05-15T12:11:17.440Z,26.89
2017-05-15T12:12:18.447Z,27.14
2017-05-15T12:13:19.228Z,27.74
2017-05-15T12:14:19.982Z,27.77
2017-05-15T12:15:20.739Z,25.83
2017-05-15T12:23:44.953Z,25.14
2017-05-15T12:28:21.857Z,25.50
2017-05-15T12:29:22.611Z,26.06
2017-05-15T12:30:23.366Z,26.31
2017-05-15T12:31:24.147Z,26.13
2017-05-15T12:32:24.909Z,26.41
2017-05-15T12:33:25.912Z,25.84
2017-05-15T12:34:26.693Z,25.50
2017-05-15T12:35:27.479Z,25.77
2017-05-15T12:36:28.237Z,26.34
2017-05-15T12:41:16.101Z,28.25
2017-05-15T12:42:16.861Z,28.10
2017-05-15T12:46:53.516Z,25.93
2017-05-15T12:47:54.273Z,25.95
2017-05-15T12:48:55.278Z,26.13
2017-05-15T12:49:56.035Z,26.02
2017-05-15T12:54:44.125Z,27.29
2017-05-15T12:58:23.170Z,27.68
2017-05-15T12:59:23.925Z,27.27
2017-05-15T13:00:24.680Z,27.05
2017-05-15T13:01:25.432Z,27.60
2017-05-15T13:02:26.188Z,26.00
2017-05-15T13:03:27.198Z,26.00
2017-05-15T13:04:27.955Z,26.18
2017-05-15T13:05:28.731Z,26.68
2017-05-15T13:06:29.494Z,26.55
2017-05-15T13:07:30.256Z,26.85
2017-05-15T13:08:31.334Z,27.03
2017-05-15T13:09:32.090Z,27.44
2017-05-15T13:10:32.843Z,27.40
2017-05-15T13:11:33.598Z,27.21
2017-05-15T13:12:34.355Z,26.75
2017-05-15T13:13:35.365Z,26.84
2017-05-15T13:14:36.124Z,26.65
2017-05-15T13:15:36.882Z,27.03
2017-05-15T13:16:37.642Z,26.41
2017-05-15T13:17:38.404Z,26.31
2017-05-15T13:18:39.412Z,26.41
2017-05-15T13:19:40.175Z,26.38
2017-05-15T13:20:40.927Z,26.15
2017-05-15T13:21:41.709Z,26.34
2017-05-15T13:22:42.466Z,26.37
2017-05-15T13:23:43.502Z,26.06
2017-05-15T13:24:44.262Z,26.44
2017-05-15T13:25:45.019Z,25.58
2017-05-15T13:26:45.774Z,24.80
2017-05-15T13:27:46.533Z,24.16
2017-05-15T13:28:47.540Z,24.60
2017-05-15T13:29:48.297Z,25.58
2017-05-15T13:30:49.054Z,26.05
2017-05-15T13:31:49.804Z,26.09
2017-05-15T13:32:50.560Z,26.48
2017-05-15T13:33:51.618Z,27.03
2017-05-15T13:34:52.377Z,27.17
2017-05-15T13:35:53.133Z,27.10
2017-05-15T13:36:53.894Z,27.71
2017-05-15T13:37:54.651Z,27.86
2017-05-15T13:38:55.658Z,28.38
2017-05-15T13:39:56.408Z,28.47
2017-05-15T13:40:57.164Z,28.47
2017-05-15T13:41:57.921Z,28.15
2017-05-15T13:42:58.680Z,28.37
2017-05-15T13:43:59.689Z,28.60
2017-05-15T13:45:00.440Z,28.76
2017-05-15T13:46:01.223Z,29.16
2017-05-15T13:47:02.241Z,29.08
2017-05-15T13:48:03.000Z,28.70
2017-05-15T13:49:04.008Z,28.84
2017-05-15T13:50:04.765Z,28.42
2017-05-15T13:51:05.521Z,28.47
2017-05-15T13:52:06.278Z,28.89
2017-05-15T13:53:07.036Z,28.33
2017-05-15T13:54:08.039Z,27.74
2017-05-15T13:55:08.794Z,26.25
2017-05-15T13:56:09.551Z,26.63
2017-05-15T13:57:10.336Z,26.80
2017-05-15T13:58:11.092Z,26.78
2017-05-15T13:59:12.098Z,26.29
2017-05-15T14:00:12.854Z,26.78
2017-05-15T14:01:13.608Z,26.29
2017-05-15T14:02:14.370Z,26.81
2017-05-15T14:03:15.120Z,27.14
2017-05-15T14:04:16.125Z,27.00
2017-05-15T14:05:16.881Z,26.05
2017-05-15T14:06:17.638Z,26.92
2017-05-15T14:07:18.397Z,27.10
2017-05-15T14:08:19.156Z,26.80
2017-05-15T14:09:20.162Z,27.10
2017-05-15T14:10:20.921Z,27.30
2017-05-15T14:11:21.679Z,27.26
2017-05-15T14:12:22.462Z,27.45
2017-05-15T14:13:23.221Z,27.51
2017-05-15T14:14:24.228Z,27.51
2017-05-15T14:15:25.011Z,28.08
2017-05-15T14:16:25.769Z,27.32
2017-05-15T14:17:26.550Z,26.99
2017-05-15T14:18:27.309Z,27.07